Time;durP1;ratioP1;P1;durP2;ratioP2;P2;SDS_P1;SDS_P2;PMS_P1;PMS_P2;Temp;Humidity;BMP_temperature;BMP_pressure;BME280_temperature;BME280_humidity;BME280_pressure;Samples;Min_cycle;Max_cycle;Signal;HPM_P1;HPM_P2
2023/09/12 00:00:48;;;;;;;9.70;5.93;;;18.20;99.90;;;17.68;100.00;101013.69;4197912;28;20029;-75
2023/09/12 00:02:49;;;;;;;9.15;6.63;;;18.20;99.90;;;17.69;100.00;101017.19;4187564;28;20025;-75
2023/09/12 00:04:50;;;;;;;8.65;6.97;;;18.20;99.90;;;17.71;100.00;101012.50;4187931;28;20025;-75
2023/09/12 00:06:51;;;;;;;9.77;6.57;;;18.20;99.90;;;17.72;100.00;101014.13;4187819;28;20021;-75
2023/09/12 00:08:52;;;;;;;12.02;7.00;;;18.20;99.90;;;17.73;100.00;101009.63;4187793;28;20400;-75
2023/09/12 00:11:25;;;;;;;7.97;6.70;;;18.20;99.90;;;17.72;100.00;101013.31;4187677;28;20146;-75
2023/09/12 00:13:26;;;;;;;9.57;7.07;;;18.20;99.90;;;17.74;100.00;101011.28;4191344;28;20068;-75
2023/09/12 00:15:27;;;;;;;9.32;6.45;;;18.20;99.90;;;17.77;100.00;101011.69;4198031;28;20051;-75
2023/09/12 00:17:27;;;;;;;11.05;6.72;;;18.30;99.90;;;17.79;100.00;101015.00;4187364;28;20060;-75
2023/09/12 00:19:28;;;;;;;6.47;5.82;;;18.30;99.90;;;17.81;100.00;101012.13;4187689;28;20029;-75
2023/09/12 00:21:29;;;;;;;8.38;6.43;;;18.30;99.90;;;17.81;100.00;101015.63;4186283;28;20029;-75
2023/09/12 00:23:30;;;;;;;8.88;6.03;;;18.40;99.90;;;17.80;100.00;101019.31;4187546;28;20500;-75
2023/09/12 00:25:31;;;;;;;9.05;5.45;;;18.30;99.90;;;17.82;100.00;101016.47;4200914;28;20414;-75
2023/09/12 00:27:32;;;;;;;8.75;5.68;;;18.30;99.90;;;17.83;100.00;101010.13;4188575;28;20075;-75
2023/09/12 00:29:33;;;;;;;9.00;6.22;;;18.30;99.90;;;17.84;100.00;101007.25;4203004;28;20025;-75
2023/09/12 00:31:33;;;;;;;9.80;5.70;;;18.40;99.90;;;17.81;100.00;100993.47;4203871;28;20020;-75
2023/09/12 00:33:34;;;;;;;9.32;6.28;;;18.40;99.90;;;17.84;100.00;100998.41;4203918;28;20044;-75
2023/09/12 00:35:35;;;;;;;7.43;5.63;;;18.40;99.90;;;17.85;100.00;101002.72;4200072;28;20028;-75
2023/09/12 00:37:36;;;;;;;8.43;5.82;;;18.40;99.90;;;17.84;100.00;100993.91;4192841;28;20040;-75
2023/09/12 00:39:37;;;;;;;7.50;5.30;;;18.40;99.90;;;17.81;100.00;101012.13;4197724;28;20033;-75
2023/09/12 00:41:38;;;;;;;7.72;5.72;;;18.40;99.90;;;17.76;100.00;100998.56;4190393;28;20033;-75
2023/09/12 00:43:39;;;;;;;7.43;5.60;;;18.30;99.90;;;17.75;100.00;101007.59;4189865;28;20021;-75
2023/09/12 00:45:41;;;;;;;12.82;6.45;;;18.30;99.90;;;17.68;100.00;100992.34;4195779;28;20500;-75
2023/09/12 00:47:42;;;;;;;9.95;6.28;;;18.30;99.90;;;17.63;100.00;100988.63;4185703;28;20029;-75
2023/09/12 00:49:44;;;;;;;10.30;5.95;;;18.20;99.90;;;17.61;100.00;100990.69;4185948;28;20025;-75
2023/09/12 00:51:46;;;;;;;8.85;6.60;;;18.20;99.90;;;17.51;100.00;100985.66;4189741;28;20025;-75
2023/09/12 00:53:47;;;;;;;9.52;6.05;;;18.20;99.90;;;17.47;100.00;100991.59;4176590;28;20025;-75
2023/09/12 00:55:57;;;;;;;12.73;7.32;;;18.10;99.90;;;17.40;100.00;100994.19;4185969;28;20108;-75
2023/09/12 00:57:58;;;;;;;11.18;6.47;;;18.00;99.90;;;17.35;100.00;100990.47;4185008;28;20033;-75
2023/09/12 01:00:01;;;;;;;9.40;7.13;;;17.90;99.90;;;17.33;100.00;100997.81;4187273;28;20071;-75
2023/09/12 01:02:02;;;;;;;8.63;5.63;;;17.90;99.90;;;17.30;100.00;100995.53;4193751;28;20029;-75
2023/09/12 01:04:04;;;;;;;11.77;6.40;;;17.90;99.90;;;17.28;100.00;100995.75;4197491;28;20021;-75
2023/09/12 01:06:08;;;;;;;6.72;5.50;;;17.80;99.90;;;17.29;100.00;100999.25;4185607;28;20033;-75
2023/09/12 01:08:09;;;;;;;;;;;17.80;99.90;;;17.23;100.00;100992.03;4174618;28;20032;-75
2023/09/12 01:10:10;;;;;;;9.20;6.68;;;17.80;99.90;;;17.25;100.00;100990.81;4194155;28;19908;-75
2023/09/12 01:12:14;;;;;;;8.00;5.72;;;17.80;99.90;;;17.26;100.00;100989.78;4190445;28;20056;-75
2023/09/12 01:14:15;;;;;;;12.60;6.22;;;17.80;99.90;;;17.24;100.00;100981.16;4186693;28;20028;-75
2023/09/12 01:16:16;;;;;;;13.57;7.53;;;17.80;99.90;;;17.20;100.00;100981.75;4190646;28;20020;-75
2023/09/12 01:18:16;;;;;;;10.13;7.18;;;17.80;99.90;;;17.18;100.00;100976.59;4185614;28;20017;-75
2023/09/12 01:20:28;;;;;;;14.75;7.78;;;17.70;99.90;;;17.12;100.00;100969.34;4196916;28;20024;-75
2023/09/12 01:23:10;;;;;;;10.07;6.85;;;17.70;99.90;;;17.08;100.00;100968.91;4198295;28;20021;-75
2023/09/12 01:25:46;;;;;;;8.35;6.13;;;17.60;99.90;;;16.99;100.00;100972.72;4186624;28;20055;-75
2023/09/12 01:27:50;;;;;;;7.97;6.07;;;17.60;99.90;;;16.97;100.00;100980.09;4193623;28;20047;-75
2023/09/12 01:29:57;;;;;;;7.75;6.15;;;17.50;99.90;;;16.92;100.00;100981.69;4203056;28;20046;-75
2023/09/12 01:32:00;;;;;;;10.25;6.95;;;17.50;99.90;;;16.89;100.00;100990.06;4186508;28;20028;-75
2023/09/12 01:34:11;;;;;;;10.50;7.45;;;17.40;99.90;;;16.84;100.00;100982.66;4185658;28;20033;-75
2023/09/12 01:36:12;;;;;;;11.40;6.72;;;17.40;99.90;;;16.80;100.00;100981.38;4188299;28;20065;-75
2023/09/12 01:38:14;;;;;;;8.57;6.15;;;17.40;99.90;;;16.78;100.00;100983.44;4188062;28;20049;-75
2023/09/12 01:40:16;;;;;;;10.00;6.63;;;17.30;99.90;;;16.74;100.00;100997.31;4185233;28;20415;-75
2023/09/12 01:42:21;;;;;;;8.70;6.78;;;17.30;99.90;;;16.71;100.00;100990.53;4185625;28;20032;-75
2023/09/12 01:44:25;;;;;;;8.60;6.38;;;17.20;99.90;;;16.69;100.00;100992.56;4194735;28;20020;-75
2023/09/12 01:46:26;;;;;;;8.38;6.25;;;17.20;99.90;;;16.64;100.00;100988.78;4188216;28;20039;-75
2023/09/12 01:48:34;;;;;;;13.02;7.65;;;17.20;99.90;;;16.64;100.00;100986.13;4185007;28;20025;-75
2023/09/12 01:50:35;;;;;;;10.98;6.57;;;17.20;99.90;;;16.61;100.00;100984.66;4192115;28;20040;-75
2023/09/12 01:52:37;;;;;;;10.23;6.63;;;17.20;99.90;;;16.59;100.00;100989.38;4195542;28;20396;-75
2023/09/12 01:54:39;;;;;;;11.32;6.25;;;17.10;99.90;;;16.58;100.00;100988.53;4202696;28;20369;-75
2023/09/12 01:56:41;;;;;;;11.20;7.28;;;17.10;99.90;;;16.57;100.00;100994.06;4202739;28;20027;-75
2023/09/12 01:58:42;;;;;;;11.65;7.82;;;17.10;99.90;;;16.56;100.00;100987.91;4194493;28;20501;-75
2023/09/12 02:00:43;;;;;;;12.80;6.75;;;17.10;99.90;;;16.50;100.00;100987.81;4184825;28;20067;-75
2023/09/12 02:02:44;;;;;;;10.50;6.50;;;17.10;99.90;;;16.49;100.00;100994.97;4197962;28;20503;-75
2023/09/12 02:05:18;;;;;;;11.82;6.40;;;17.10;99.90;;;16.45;100.00;100991.03;4186109;28;20032;-75
2023/09/12 02:07:21;;;;;;;7.05;5.53;;;17.00;99.90;;;16.42;100.00;100994.09;4185010;28;20021;-75
2023/09/12 02:09:22;;;;;;;12.23;6.75;;;17.00;99.90;;;16.40;100.00;100996.09;4191617;28;20052;-75
2023/09/12 02:11:23;;;;;;;10.00;6.78;;;16.90;99.90;;;16.38;100.00;100987.47;4185976;28;20550;-75
2023/09/12 02:13:23;;;;;;;11.73;6.57;;;17.00;99.90;;;16.37;100.00;100984.97;4191978;28;20029;-75
2023/09/12 02:15:24;;;;;;;8.52;6.22;;;16.90;99.90;;;16.34;100.00;100988.03;4185855;28;20071;-75
2023/09/12 02:17:25;;;;;;;10.35;6.85;;;16.90;99.90;;;16.32;100.00;100984.72;4198037;28;20032;-75
2023/09/12 02:19:26;;;;;;;9.63;6.35;;;16.90;99.90;;;16.27;100.00;100987.97;4185877;28;20492;-75
2023/09/12 02:21:27;;;;;;;9.35;6.53;;;16.90;99.90;;;16.25;100.00;100989.13;4191346;28;20401;-75
2023/09/12 02:23:27;;;;;;;10.68;6.82;;;16.80;99.90;;;16.22;100.00;100990.34;4185746;28;20055;-75
2023/09/12 02:25:28;;;;;;;8.43;6.50;;;16.80;99.90;;;16.21;100.00;100982.56;4185660;28;20025;-74
2023/09/12 02:27:29;;;;;;;8.02;6.07;;;16.80;99.90;;;16.20;100.00;100989.72;4185652;28;20031;-75
2023/09/12 02:29:32;;;;;;;12.48;7.70;;;16.70;99.90;;;16.18;100.00;100989.09;4185657;28;20029;-75
2023/09/12 02:31:33;;;;;;;10.90;7.13;;;16.80;99.90;;;16.17;100.00;100989.25;4185414;28;20025;-75
2023/09/12 02:33:34;;;;;;;8.02;6.30;;;16.70;99.90;;;16.15;100.00;100988.63;4197673;28;20035;-75
2023/09/12 02:35:34;;;;;;;9.20;6.55;;;16.70;99.90;;;16.13;100.00;100988.78;4189909;28;20037;-74
2023/09/12 02:37:35;;;;;;;10.68;6.57;;;16.70;99.90;;;16.12;100.00;100992.50;4190823;28;20045;-75
2023/09/12 02:39:36;;;;;;;12.55;6.63;;;16.70;99.90;;;16.11;100.00;100985.50;4185797;28;20052;-75
2023/09/12 02:41:37;;;;;;;12.80;7.18;;;16.70;99.90;;;16.09;100.00;100984.03;4185374;28;20029;-75
2023/09/12 02:43:38;;;;;;;7.85;5.85;;;16.70;99.90;;;16.07;100.00;100989.53;4188851;28;20036;-75
2023/09/12 02:45:39;;;;;;;11.40;7.72;;;16.60;99.90;;;16.01;100.00;100979.63;4202184;28;20480;-75
2023/09/12 02:47:39;;;;;;;17.73;8.20;;;16.60;99.90;;;16.02;100.00;100991.94;4191070;28;20478;-75
2023/09/12 02:49:40;;;;;;;9.15;6.07;;;16.60;99.90;;;16.01;100.00;100987.63;4185342;28;20029;-74
2023/09/12 02:51:41;;;;;;;8.70;6.55;;;16.60;99.90;;;16.00;100.00;100992.13;4197934;28;20450;-75
2023/09/12 02:53:42;;;;;;;9.90;7.22;;;16.60;99.90;;;15.99;100.00;100981.66;4190151;28;20042;-74
2023/09/12 02:55:43;;;;;;;12.88;7.80;;;16.60;99.90;;;16.00;100.00;100978.84;4185297;28;20033;-75
2023/09/12 02:57:44;;;;;;;14.52;8.38;;;16.50;99.90;;;16.00;100.00;100980.66;4185263;28;20518;-75
2023/09/12 02:59:45;;;;;;;15.35;7.40;;;16.60;99.90;;;16.04;100.00;100992.56;4199417;28;20035;-74
2023/09/12 03:01:46;;;;;;;14.18;7.50;;;16.60;99.90;;;16.02;100.00;100981.28;4184982;28;20028;-75
2023/09/12 03:03:47;;;;;;;10.93;7.07;;;16.50;99.90;;;16.03;100.00;100977.63;4192371;28;20021;-74
2023/09/12 03:05:47;;;;;;;9.73;6.80;;;16.60;99.90;;;16.03;100.00;100985.63;4184034;28;20028;-74
2023/09/12 03:07:48;;;;;;;11.38;7.43;;;16.60;99.90;;;16.04;100.00;100984.59;4199911;28;20031;-75
2023/09/12 03:09:50;;;;;;;12.95;8.55;;;16.60;99.90;;;16.07;100.00;100978.91;4201779;28;20082;-74
2023/09/12 03:11:50;;;;;;;11.93;8.18;;;16.60;99.90;;;16.08;100.00;100980.56;4201806;28;20492;-74
2023/09/12 03:13:51;;;;;;;15.60;8.27;;;16.60;99.90;;;16.11;100.00;100985.50;4189220;28;20037;-75
2023/09/12 03:15:52;;;;;;;12.73;7.93;;;16.60;99.90;;;16.09;100.00;100984.88;4185036;28;20400;-75
2023/09/12 03:17:53;;;;;;;12.13;8.35;;;16.60;99.90;;;16.06;100.00;100977.25;4187900;28;20020;-74
2023/09/12 03:19:54;;;;;;;11.30;7.80;;;16.60;99.90;;;16.03;100.00;100977.63;4184504;28;20029;-74
2023/09/12 03:21:55;;;;;;;15.40;8.82;;;16.60;99.90;;;16.04;100.00;100989.91;4197865;28;20029;-74
2023/09/12 03:23:56;;;;;;;12.68;7.45;;;16.60;99.90;;;15.95;100.00;100975.88;4191010;28;20542;-75
2023/09/12 03:26:03;;;;;;;15.63;8.38;;;16.60;99.90;;;15.98;100.00;100980.00;4188535;28;20082;-74
2023/09/12 03:28:06;;;;;;;11.85;7.28;;;16.50;99.90;;;15.93;100.00;100977.91;4188478;28;20031;-74
2023/09/12 03:30:07;;;;;;;13.60;7.78;;;16.50;99.90;;;15.93;100.00;100988.56;4198758;28;20021;-75
2023/09/12 03:32:08;;;;;;;11.48;6.85;;;16.50;99.90;;;15.91;100.00;100985.25;4197809;28;20115;-74
2023/09/12 03:34:09;;;;;;;10.20;6.60;;;16.50;99.90;;;15.89;100.00;100978.44;4188398;28;20032;-75
2023/09/12 03:36:10;;;;;;;11.90;8.45;;;16.50;99.90;;;15.83;100.00;100971.25;4199501;28;20036;-74
2023/09/12 03:38:11;;;;;;;12.82;7.95;;;16.40;99.90;;;15.83;100.00;100979.22;4201215;28;20048;-74
2023/09/12 03:40:12;;;;;;;9.98;7.80;;;16.40;99.90;;;15.83;100.00;100971.25;4204801;28;20153;-74
2023/09/12 03:42:13;;;;;;;12.82;7.78;;;16.40;99.90;;;15.78;100.00;100976.25;4203473;28;20041;-74
2023/09/12 03:44:14;;;;;;;11.18;7.90;;;16.40;99.90;;;15.78;100.00;100976.25;4220426;28;20024;-74
2023/09/12 03:46:14;;;;;;;12.93;8.55;;;16.30;99.90;;;15.71;100.00;100978.03;4203267;28;20029;-74
2023/09/12 03:48:15;;;;;;;16.05;8.82;;;16.30;99.90;;;15.73;100.00;100976.81;4204547;28;20056;-74
2023/09/12 03:50:16;;;;;;;13.88;8.13;;;16.30;99.90;;;15.68;100.00;100981.84;4204726;28;20025;-74
2023/09/12 03:52:18;;;;;;;12.85;7.72;;;16.30;99.90;;;15.67;100.00;100979.38;4195261;28;20551;-74
2023/09/12 03:54:19;;;;;;;16.92;9.07;;;16.20;99.90;;;15.67;100.00;100974.91;4186879;28;20024;-74
2023/09/12 03:56:20;;;;;;;11.50;8.77;;;16.20;99.90;;;15.65;100.00;100970.78;4202716;28;20538;-74
2023/09/12 03:58:21;;;;;;;15.75;8.93;;;16.20;99.90;;;15.64;100.00;100971.78;4198564;28;20032;-74
2023/09/12 04:00:22;;;;;;;11.73;8.68;;;16.20;99.90;;;15.62;100.00;100981.78;4186774;28;20029;-74
2023/09/12 04:02:24;;;;;;;12.30;8.45;;;16.20;99.90;;;15.61;100.00;100974.81;4188990;28;20566;-75
2023/09/12 04:04:25;;;;;;;16.73;9.70;;;16.20;99.90;;;15.58;100.00;100977.81;4187718;28;20063;-75
2023/09/12 04:06:25;;;;;;;14.68;8.48;;;16.10;99.90;;;15.58;100.00;100983.16;4191107;28;20017;-75
2023/09/12 04:08:26;;;;;;;15.38;9.55;;;16.20;99.90;;;15.57;100.00;100984.13;4187865;28;20087;-74
2023/09/12 04:10:27;;;;;;;16.10;9.48;;;16.10;99.90;;;15.56;100.00;100980.66;4197350;28;20454;-74
2023/09/12 04:12:28;;;;;;;12.10;8.57;;;16.10;99.90;;;15.54;100.00;100981.84;4198950;28;20107;-74
2023/09/12 04:14:29;;;;;;;11.18;8.45;;;16.10;99.90;;;15.55;100.00;100986.16;4191987;28;20031;-74
2023/09/12 04:16:30;;;;;;;14.25;9.63;;;16.10;99.90;;;15.53;100.00;100986.34;4204071;28;20037;-74
2023/09/12 04:18:30;;;;;;;13.40;8.68;;;16.10;99.90;;;15.53;100.00;100983.69;4192289;28;20037;-75
2023/09/12 04:20:31;;;;;;;17.33;9.95;;;16.10;99.90;;;15.53;100.00;100986.34;4186482;28;20025;-74
2023/09/12 04:22:33;;;;;;;15.25;9.27;;;16.10;99.90;;;15.55;100.00;100983.50;4196453;28;20033;-74
2023/09/12 04:24:34;;;;;;;15.65;9.77;;;16.10;99.90;;;15.55;100.00;100994.16;4186469;28;20017;-74
2023/09/12 04:26:35;;;;;;;15.02;9.20;;;16.10;99.90;;;15.54;100.00;100985.34;4187535;28;20032;-74
2023/09/12 04:28:36;;;;;;;15.70;9.80;;;16.10;99.90;;;15.53;100.00;100985.53;4186269;28;20090;-75
2023/09/12 04:30:37;;;;;;;15.18;10.30;;;16.10;99.90;;;15.56;100.00;100990.50;4196515;28;20025;-75
2023/09/12 04:32:37;;;;;;;11.85;8.70;;;16.10;99.90;;;15.53;100.00;100994.31;4195173;28;20024;-74
2023/09/12 04:34:38;;;;;;;17.27;9.95;;;16.10;99.90;;;15.48;100.00;100988.72;4187410;28;20021;-74
2023/09/12 04:36:39;;;;;;;13.73;9.63;;;16.10;99.90;;;15.48;100.00;100988.72;4202504;28;20029;-74
2023/09/12 04:38:40;;;;;;;16.70;10.57;;;16.10;99.90;;;15.48;100.00;100988.72;4203574;28;20045;-75
2023/09/12 04:40:41;;;;;;;16.65;9.77;;;16.10;99.90;;;15.45;100.00;100989.06;4203944;28;20032;-74
2023/09/12 04:42:42;;;;;;;19.60;11.73;;;16.00;99.90;;;15.47;100.00;100997.72;4202303;28;20021;-74
2023/09/12 04:44:43;;;;;;;16.90;11.15;;;16.00;99.90;;;15.47;100.00;101001.19;4203786;28;20025;-74
2023/09/12 04:46:44;;;;;;;17.55;10.23;;;16.10;99.90;;;15.50;100.00;101000.03;4218955;28;20020;-75
2023/09/12 04:48:45;;;;;;;19.95;11.65;;;16.00;99.90;;;15.54;100.00;100993.31;4203920;28;20078;-74
2023/09/12 04:50:45;;;;;;;14.77;10.27;;;16.10;99.90;;;15.56;100.00;100993.16;4203702;28;20024;-74
2023/09/12 04:52:46;;;;;;;14.80;11.57;;;16.10;99.90;;;15.61;100.00;100996.06;4201801;28;20054;-74
2023/09/12 04:54:47;;;;;;;14.77;10.55;;;16.20;99.90;;;15.61;100.00;100998.72;4188346;28;20021;-75
2023/09/12 04:56:48;;;;;;;15.57;10.98;;;16.20;99.90;;;15.64;100.00;101003.69;4191213;28;20032;-75
2023/09/12 04:58:49;;;;;;;16.65;11.55;;;16.20;99.90;;;15.64;100.00;100998.38;4185886;28;20531;-75
2023/09/12 05:00:49;;;;;;;17.48;11.27;;;16.20;99.90;;;15.64;100.00;100996.53;4197558;28;20499;-75
2023/09/12 05:02:50;;;;;;;14.52;10.75;;;16.20;99.90;;;15.61;100.00;100998.72;4187236;28;20396;-75
2023/09/12 05:04:52;;;;;;;16.30;10.65;;;16.20;99.90;;;15.62;100.00;100998.53;4190814;28;20024;-75
2023/09/12 05:06:53;;;;;;;19.00;11.90;;;16.20;99.90;;;15.67;100.00;101008.66;4186992;28;20025;-75
2023/09/12 05:08:54;;;;;;;14.20;10.52;;;16.20;99.90;;;15.67;100.00;101006.81;4186932;28;20059;-75
2023/09/12 05:10:55;;;;;;;14.18;10.77;;;16.20;99.90;;;15.68;100.00;101000.47;4186786;28;20391;-74
2023/09/12 05:12:56;;;;;;;14.55;11.18;;;16.20;99.90;;;15.70;100.00;100997.63;4202048;28;20032;-74
2023/09/12 05:14:57;;;;;;;17.75;12.27;;;16.20;99.90;;;15.73;100.00;100997.28;4203489;28;20025;-74
2023/09/12 05:16:57;;;;;;;16.65;12.32;;;16.20;99.90;;;15.72;100.00;101003.59;4203338;28;20030;-74
2023/09/12 05:18:58;;;;;;;14.95;10.98;;;16.20;99.90;;;15.69;100.00;100996.81;4203249;28;20032;-75
2023/09/12 05:20:59;;;;;;;16.98;10.38;;;16.30;99.90;;;15.70;100.00;101003.78;4197913;28;20036;-75
2023/09/12 05:23:00;;;;;;;13.57;9.88;;;16.20;99.90;;;15.72;100.00;101012.41;4195843;28;20036;-75
2023/09/12 05:25:01;;;;;;;15.48;9.77;;;16.30;99.90;;;15.73;100.00;101002.59;4186648;28;20040;-75
2023/09/12 05:27:02;;;;;;;12.48;9.63;;;16.30;99.90;;;15.71;100.00;101004.63;4186526;28;20097;-74
2023/09/12 05:29:03;;;;;;;11.18;8.32;;;16.30;99.90;;;15.71;100.00;101002.75;4185370;28;20063;-75
2023/09/12 05:31:04;;;;;;;22.70;10.05;;;16.30;99.90;;;15.72;100.00;101006.25;4202183;28;20020;-74
2023/09/12 05:33:05;;;;;;;12.63;8.40;;;16.30;99.90;;;15.71;100.00;101012.59;4191842;28;20029;-74
2023/09/12 05:35:06;;;;;;;13.73;9.23;;;16.20;99.90;;;15.67;100.00;101003.31;4189903;28;20502;-74
2023/09/12 05:37:07;;;;;;;13.98;8.77;;;16.20;99.90;;;15.68;100.00;101011.09;4189696;28;20480;-75
2023/09/12 05:39:09;;;;;;;15.73;10.15;;;16.20;99.90;;;15.64;100.00;101014.31;4202915;28;20078;-75
2023/09/12 05:41:10;;;;;;;13.43;9.43;;;16.20;99.90;;;15.62;100.00;101008.38;4192561;28;20028;-74
2023/09/12 05:43:10;;;;;;;11.50;8.02;;;16.20;99.90;;;15.63;100.00;101017.97;4199210;28;20021;-74
2023/09/12 05:45:11;;;;;;;12.27;8.95;;;16.20;99.90;;;15.62;100.00;101021.66;4187922;28;20067;-74
2023/09/12 05:47:12;;;;;;;14.55;9.82;;;16.20;99.90;;;15.62;100.00;101019.00;4186204;28;20025;-74
2023/09/12 05:49:14;;;;;;;11.50;8.60;;;16.10;99.90;;;15.61;100.00;101018.19;4186239;28;20477;-75
2023/09/12 05:51:15;;;;;;;12.82;9.02;;;16.20;99.90;;;15.63;100.00;101025.97;4197643;28;20034;-75
2023/09/12 05:53:16;;;;;;;14.48;9.13;;;16.20;99.90;;;15.61;100.00;101030.66;4186685;28;20037;-75
2023/09/12 05:55:17;;;;;;;15.95;8.73;;;16.10;99.90;;;15.60;100.00;101023.66;4186206;28;20026;-74
2023/09/12 05:57:18;;;;;;;16.98;10.38;;;16.20;99.90;;;15.61;100.00;101031.47;4184829;28;20029;-75
2023/09/12 05:59:19;;;;;;;14.00;9.90;;;16.20;99.90;;;15.61;100.00;101027.97;4186107;28;20087;-75
2023/09/12 06:01:20;;;;;;;12.43;8.82;;;16.20;99.90;;;15.58;100.00;101028.34;4185802;28;20025;-74
2023/09/12 06:03:21;;;;;;;17.92;10.23;;;16.10;99.90;;;15.58;100.00;101025.69;4190311;28;20016;-75
2023/09/12 06:05:22;;;;;;;12.30;9.65;;;16.10;99.90;;;15.59;100.00;101027.34;4184758;28;20061;-75
2023/09/12 06:07:23;;;;;;;11.63;8.75;;;16.10;99.90;;;15.57;100.00;101030.19;4184856;28;20017;-75
2023/09/12 06:09:24;;;;;;;13.57;9.20;;;16.10;99.90;;;15.59;100.00;101038.00;4184683;28;20033;-75
2023/09/12 06:11:25;;;;;;;14.90;8.13;;;16.10;99.90;;;15.60;100.00;101035.13;4188667;28;20032;-74
2023/09/12 06:13:26;;;;;;;12.23;7.78;;;16.10;99.90;;;15.62;100.00;101034.97;4194734;28;20041;-75
2023/09/12 06:15:26;;;;;;;14.18;10.05;;;16.20;99.90;;;15.63;100.00;101042.75;4184585;28;20443;-74
2023/09/12 06:17:27;;;;;;;15.40;10.60;;;16.20;99.90;;;15.67;100.00;101051.19;4198446;28;20032;-75
2023/09/12 06:19:28;;;;;;;14.82;9.80;;;16.20;99.90;;;15.70;100.00;101056.16;4187217;28;20662;-74
2023/09/12 06:21:29;;;;;;;12.75;9.02;;;16.30;99.90;;;15.75;100.00;101049.28;4193007;28;20035;-73
2023/09/12 06:23:30;;;;;;;13.38;9.52;;;16.30;99.90;;;15.83;100.00;101053.69;4191791;28;20025;-74
2023/09/12 06:25:31;;;;;;;13.40;9.68;;;16.40;99.90;;;15.90;100.00;101057.25;4184312;28;20025;-74
2023/09/12 06:27:32;;;;;;;15.15;9.32;;;16.40;99.90;;;15.96;100.00;101054.72;4189371;28;20020;-75
2023/09/12 06:29:33;;;;;;;15.13;10.05;;;16.50;99.90;;;15.98;100.00;101054.50;4185724;28;20477;-75
2023/09/12 06:31:35;;;;;;;12.35;8.50;;;16.50;99.90;;;15.97;100.00;101053.72;4189087;28;20051;-75
2023/09/12 06:33:37;;;;;;;14.25;8.88;;;16.50;99.90;;;16.01;100.00;101051.47;4187277;28;20044;-75
2023/09/12 06:35:38;;;;;;;9.48;7.45;;;16.50;99.90;;;16.04;100.00;101056.44;4189986;28;20032;-75
2023/09/12 06:37:39;;;;;;;10.98;7.40;;;16.60;99.90;;;16.07;100.00;101056.06;4190986;28;20059;-75
2023/09/12 06:39:40;;;;;;;9.48;7.25;;;16.60;99.90;;;16.08;100.00;101055.06;4184214;28;20036;-75
2023/09/12 06:41:41;;;;;;;11.25;7.45;;;16.60;99.90;;;16.12;100.00;101056.38;4196607;28;20024;-75
2023/09/12 06:43:43;;;;;;;12.88;8.52;;;16.60;99.90;;;16.13;100.00;101052.66;4204871;28;20376;-75
2023/09/12 06:45:46;;;;;;;9.52;6.82;;;16.70;99.90;;;16.22;100.00;101058.75;4195089;28;20025;-75
2023/09/12 06:47:47;;;;;;;8.95;6.15;;;16.70;99.90;;;16.26;100.00;101052.84;4187620;28;20020;-75
2023/09/12 06:49:47;;;;;;;12.20;6.72;;;16.80;99.90;;;16.35;100.00;101057.06;4201810;28;20035;-75
2023/09/12 06:51:48;;;;;;;8.80;6.45;;;16.80;99.90;;;16.38;100.00;101054.03;4196943;28;20504;-75
2023/09/12 06:53:50;;;;;;;11.82;7.70;;;16.80;99.90;;;16.45;100.00;101060.28;4185281;28;20033;-75
2023/09/12 06:55:51;;;;;;;9.52;7.13;;;16.90;99.90;;;16.46;100.00;101061.06;4193989;28;20020;-75
2023/09/12 06:57:52;;;;;;;9.88;6.68;;;16.90;99.90;;;16.53;100.00;101060.16;4184018;28;20028;-75
2023/09/12 06:59:52;;;;;;;7.53;5.85;;;17.00;99.90;;;16.60;100.00;101065.59;4189331;28;20024;-74
2023/09/12 07:01:53;;;;;;;9.32;7.13;;;17.00;99.90;;;16.65;100.00;101057.03;4201567;28;20036;-76
2023/09/12 07:03:55;;;;;;;11.18;7.28;;;17.10;99.90;;;16.70;100.00;101071.44;4191708;28;20396;-75
2023/09/12 07:05:56;;;;;;;11.02;7.35;;;17.10;99.90;;;16.76;100.00;101067.19;4197428;28;20028;-75
2023/09/12 07:07:57;;;;;;;10.50;7.43;;;17.20;99.90;;;16.82;100.00;101063.78;4184129;28;20034;-76
2023/09/12 07:09:59;;;;;;;9.90;7.00;;;17.30;99.90;;;16.86;100.00;101068.56;4191384;28;20024;-75
2023/09/12 07:12:00;;;;;;;8.88;7.10;;;17.30;99.90;;;16.94;100.00;101073.75;4191910;28;20013;-74
2023/09/12 07:14:01;;;;;;;9.80;6.80;;;17.40;99.90;;;17.00;100.00;101070.34;4188096;28;20107;-74
2023/09/12 07:16:04;;;;;;;9.60;6.13;;;17.50;99.90;;;17.08;100.00;101072.88;4184940;28;20029;-75
2023/09/12 07:18:06;;;;;;;7.45;6.18;;;17.60;99.90;;;17.24;100.00;101078.97;4185311;28;20025;-75
2023/09/12 07:20:11;;;;;;;12.05;7.18;;;17.70;99.90;;;17.33;100.00;101073.31;4194250;28;20035;-74
2023/09/12 07:22:12;;;;;;;12.05;8.50;;;17.80;99.90;;;17.44;100.00;101075.47;4190834;28;20033;-75
2023/09/12 07:24:13;;;;;;;9.43;6.78;;;18.00;99.90;;;17.52;100.00;101070.00;4189437;28;20021;-75
2023/09/12 07:26:15;;;;;;;8.30;6.57;;;18.00;99.90;;;17.60;100.00;101075.22;4193045;28;20028;-75
2023/09/12 07:28:16;;;;;;;7.07;6.15;;;18.20;99.90;;;17.68;100.00;101084.94;4178180;28;20100;-75
2023/09/12 07:30:17;;;;;;;10.27;5.97;;;18.20;99.90;;;17.80;100.00;101090.56;4183616;28;20029;-74
2023/09/12 07:32:19;;;;;;;8.98;6.10;;;18.30;99.90;;;17.87;100.00;101086.06;4188247;28;20029;-75
2023/09/12 07:34:24;;;;;;;8.15;5.90;;;18.40;99.90;;;17.96;100.00;101083.06;4191683;28;20476;-75
2023/09/12 07:36:25;;;;;;;10.75;6.53;;;18.50;99.90;;;18.06;100.00;101082.72;4189418;28;20112;-75
2023/09/12 07:38:26;;;;;;;8.07;6.60;;;18.60;99.90;;;18.10;100.00;101081.28;4185383;28;20057;-74
2023/09/12 07:40:27;;;;;;;10.95;6.13;;;18.70;99.90;;;18.14;100.00;101083.38;4188654;28;20017;-75
2023/09/12 07:42:28;;;;;;;6.40;5.57;;;18.70;99.90;;;18.24;100.00;101075.03;4186785;28;20037;-75
2023/09/12 07:44:29;;;;;;;7.18;5.53;;;18.80;99.90;;;18.37;100.00;101083.09;4194293;28;20021;-75
2023/09/12 07:46:32;;;;;;;9.35;6.30;;;18.90;99.90;;;18.43;100.00;101082.28;4169622;28;20017;-75
2023/09/12 07:48:33;;;;;;;7.53;6.72;;;19.00;99.90;;;18.31;100.00;101085.75;4184948;28;20025;-75
2023/09/12 07:50:34;;;;;;;7.40;6.38;;;19.00;99.90;;;18.27;100.00;101079.16;4185022;28;20032;-75
2023/09/12 07:52:35;;;;;;;10.65;7.25;;;19.00;99.90;;;18.39;100.00;101090.91;4194524;28;20032;-75
2023/09/12 07:54:36;;;;;;;9.82;7.03;;;19.00;99.90;;;18.45;100.00;101085.63;4201300;28;20037;-75
2023/09/12 07:56:37;;;;;;;7.75;6.00;;;19.00;99.90;;;18.62;100.00;101084.25;4201454;28;20032;-75
2023/09/12 07:58:38;;;;;;;9.82;6.68;;;19.10;99.90;;;18.73;100.00;101083.69;4192718;28;20045;-75
2023/09/12 08:00:39;;;;;;;9.43;6.28;;;19.20;99.90;;;18.84;100.00;101084.97;4183642;28;20029;-75
2023/09/12 08:02:40;;;;;;;6.70;6.00;;;19.30;99.90;;;18.91;100.00;101080.44;4197587;28;20123;-75
2023/09/12 08:04:41;;;;;;;7.05;6.35;;;19.40;99.90;;;18.98;100.00;101080.47;4183488;28;20029;-75
2023/09/12 08:06:42;;;;;;;6.22;4.75;;;19.50;99.90;;;19.01;100.00;101077.38;4201781;28;20082;-75
2023/09/12 08:08:43;;;;;;;7.05;6.15;;;19.50;99.90;;;19.01;100.00;101080.88;4186731;28;20017;-75
2023/09/12 08:10:46;;;;;;;8.75;6.20;;;19.60;99.90;;;19.07;100.00;101085.41;4187106;28;20025;-75
2023/09/12 08:12:47;;;;;;;9.38;6.05;;;19.60;99.90;;;19.11;100.00;101075.97;4196084;28;20025;-75
2023/09/12 08:14:48;;;;;;;8.45;6.57;;;19.70;99.90;;;19.20;100.00;101087.31;4186168;28;20039;-75
2023/09/12 08:16:49;;;;;;;10.40;6.38;;;19.70;99.90;;;19.30;100.00;101090.38;4196099;28;20158;-75